createdAt,value
2019-06-07T00:02:45.018Z,15.85
2019-06-07T00:05:48.826Z,15.90
2019-06-07T00:08:52.584Z,15.34
2019-06-07T00:11:56.243Z,15.22
2019-06-07T00:15:00.216Z,15.47
2019-06-07T00:18:03.877Z,15.11
2019-06-07T00:21:08.954Z,15.20
2019-06-07T00:24:16.160Z,15.34
2019-06-07T00:27:22.135Z,15.48
2019-06-07T00:30:42.431Z,15.62
2019-06-07T00:33:30.035Z,15.53
2019-06-07T00:36:33.872Z,15.59
2019-06-07T00:39:37.526Z,15.65
2019-06-07T00:42:41.222Z,15.60
2019-06-07T00:45:44.979Z,15.35
2019-06-07T00:48:48.631Z,15.54
2019-06-07T00:51:53.805Z,15.60
2019-06-07T00:54:57.936Z,15.48
2019-06-07T00:58:02.517Z,15.24
2019-06-07T01:01:06.438Z,15.20
2019-06-07T01:04:10.110Z,15.01
2019-06-07T01:07:16.849Z,15.24
2019-06-07T01:10:46.319Z,15.00
2019-06-07T01:13:26.919Z,15.22
2019-06-07T01:16:54.092Z,15.55
2019-06-07T01:19:35.882Z,15.46
2019-06-07T01:22:39.573Z,15.31
2019-06-07T01:25:43.160Z,15.33
2019-06-07T01:28:46.866Z,15.45
2019-06-07T01:31:50.462Z,15.38
2019-06-07T01:34:54.144Z,15.35
2019-06-07T01:37:57.828Z,15.54
2019-06-07T01:41:01.461Z,15.38
2019-06-07T01:44:05.295Z,15.18
2019-06-07T01:47:08.952Z,15.24
2019-06-07T01:50:14.056Z,15.40
2019-06-07T01:53:21.685Z,15.49
2019-06-07T01:56:26.538Z,14.91
2019-06-07T01:59:31.034Z,14.77
2019-06-07T02:02:33.788Z,14.96
2019-06-07T02:05:37.498Z,15.29
2019-06-07T02:08:41.190Z,15.36
2019-06-07T02:11:44.903Z,15.27
2019-06-07T02:14:48.622Z,15.00
2019-06-07T02:17:52.415Z,15.41
2019-06-07T02:20:55.992Z,15.71
2019-06-07T02:23:59.642Z,15.77
2019-06-07T02:27:03.363Z,15.74
2019-06-07T02:30:37.056Z,15.70
2019-06-07T02:33:13.634Z,15.88
2019-06-07T02:36:17.355Z,16.05
2019-06-07T02:39:23.938Z,15.79
2019-06-07T02:42:30.826Z,15.26
2019-06-07T02:45:37.629Z,14.97
2019-06-07T02:48:40.148Z,14.61
2019-06-07T02:51:42.620Z,15.23
2019-06-07T02:54:46.363Z,15.62
2019-06-07T02:57:50.044Z,15.59
2019-06-07T03:01:06.855Z,14.96
2019-06-07T03:03:59.362Z,14.70
2019-06-07T03:07:03.829Z,14.79
2019-06-07T03:10:09.711Z,15.06
2019-06-07T03:13:18.711Z,14.91
2019-06-07T03:16:23.929Z,14.95
2019-06-07T03:19:31.372Z,14.72
2019-06-07T03:22:39.837Z,14.99
2019-06-07T03:25:45.451Z,15.10
2019-06-07T03:28:49.289Z,15.04
2019-06-07T03:31:53.138Z,15.07
2019-06-07T03:34:56.800Z,15.34
2019-06-07T03:38:00.482Z,15.54
2019-06-07T03:41:04.254Z,15.63
2019-06-07T03:44:08.173Z,15.73
2019-06-07T03:47:11.942Z,15.55
2019-06-07T03:50:15.687Z,15.83
2019-06-07T03:53:19.358Z,16.06
2019-06-07T03:56:23.007Z,16.01
2019-06-07T03:59:28.416Z,15.89
2019-06-07T04:02:33.818Z,15.56
2019-06-07T04:05:41.227Z,15.65
2019-06-07T04:08:43.009Z,15.73
2019-06-07T04:11:46.644Z,15.41
2019-06-07T04:14:50.371Z,15.59
2019-06-07T04:18:01.929Z,15.80
2019-06-07T04:20:59.694Z,15.69
2019-06-07T04:24:03.462Z,15.65
2019-06-07T04:27:07.178Z,15.66
2019-06-07T04:30:12.921Z,15.55
2019-06-07T04:33:16.729Z,15.37
2019-06-07T04:36:39.228Z,15.59
2019-06-07T04:39:31.378Z,15.77
2019-06-07T04:42:39.176Z,15.72
2019-06-07T04:45:50.401Z,16.03
2019-06-07T04:48:48.329Z,15.78
2019-06-07T04:51:53.375Z,15.80
2019-06-07T04:54:57.114Z,15.53
2019-06-07T04:58:00.829Z,15.30
2019-06-07T05:01:04.665Z,15.60
2019-06-07T05:04:08.340Z,15.54
2019-06-07T05:07:12.084Z,15.81
2019-06-07T05:10:15.821Z,15.35
2019-06-07T05:13:19.518Z,15.29
2019-06-07T05:16:23.295Z,15.56
2019-06-07T05:19:26.953Z,15.62
2019-06-07T05:22:31.690Z,15.83
2019-06-07T05:25:38.430Z,15.95
2019-06-07T05:28:43.011Z,15.74
2019-06-07T05:31:47.748Z,15.56
2019-06-07T05:34:51.396Z,15.72
2019-06-07T05:37:55.076Z,15.93
2019-06-07T05:40:58.790Z,15.70
2019-06-07T05:44:12.439Z,16.15
2019-06-07T05:47:07.902Z,16.07
2019-06-07T05:50:38.646Z,15.80
2019-06-07T05:53:17.101Z,15.87
2019-06-07T05:56:20.843Z,16.13
2019-06-07T05:59:24.525Z,16.17
2019-06-07T06:02:28.197Z,16.28
2019-06-07T06:05:37.481Z,16.34
2019-06-07T06:08:39.481Z,16.54
2019-06-07T06:11:55.265Z,16.59
2019-06-07T06:14:48.163Z,17.05
2019-06-07T06:17:53.966Z,17.65
2019-06-07T06:21:19.328Z,17.92
2019-06-07T06:24:02.984Z,18.38
2019-06-07T06:27:28.524Z,17.66
2019-06-07T06:30:13.167Z,17.56
2019-06-07T06:33:32.869Z,17.60
2019-06-07T06:36:22.736Z,17.71
2019-06-07T06:39:26.568Z,17.70
2019-06-07T06:42:30.240Z,17.46
2019-06-07T06:45:33.895Z,17.52
2019-06-07T06:48:40.762Z,17.65
2019-06-07T06:51:50.033Z,18.54
2019-06-07T06:54:55.415Z,18.59
2019-06-07T06:57:54.175Z,19.17
2019-06-07T07:01:06.552Z,19.48
2019-06-07T07:04:12.347Z,19.27
2019-06-07T07:07:09.032Z,19.93
2019-06-07T07:10:13.384Z,20.39
2019-06-07T07:13:17.170Z,21.04
2019-06-07T07:16:20.849Z,21.09
2019-06-07T07:19:24.506Z,19.74
2019-06-07T07:22:28.159Z,20.05
2019-06-07T07:25:31.963Z,20.02
2019-06-07T07:28:35.746Z,20.45
2019-06-07T07:31:39.451Z,20.83
2019-06-07T07:34:46.082Z,19.89
2019-06-07T07:37:54.060Z,20.41
2019-06-07T07:41:08.925Z,20.92
2019-06-07T07:44:06.176Z,21.21
2019-06-07T07:47:05.125Z,21.53
2019-06-07T07:50:09.012Z,22.56
2019-06-07T07:53:12.859Z,22.85
2019-06-07T07:56:16.517Z,22.69
2019-06-07T07:59:20.273Z,21.86
2019-06-07T08:02:23.983Z,22.06
2019-06-07T08:05:41.884Z,23.37
2019-06-07T08:08:33.049Z,23.76
2019-06-07T08:11:36.688Z,23.34
2019-06-07T08:14:40.426Z,23.71
2019-06-07T08:17:44.218Z,23.36
2019-06-07T08:21:08.833Z,22.49
2019-06-07T08:23:58.227Z,22.61
2019-06-07T08:27:24.658Z,23.46
2019-06-07T08:30:35.370Z,24.35
2019-06-07T08:33:25.971Z,24.04
2019-06-07T08:36:25.103Z,24.07
2019-06-07T08:39:23.683Z,24.66
2019-06-07T08:42:36.982Z,24.26
2019-06-07T08:45:32.832Z,24.84
2019-06-07T08:48:36.450Z,24.02
2019-06-07T08:51:40.226Z,24.52
2019-06-07T08:54:43.923Z,23.14
2019-06-07T08:57:47.587Z,23.07
2019-06-07T09:00:52.962Z,23.56
2019-06-07T09:04:02.656Z,23.06
2019-06-07T09:07:13.890Z,23.14
2019-06-07T09:10:14.210Z,22.82
2019-06-07T09:13:14.486Z,23.38
2019-06-07T09:16:18.187Z,23.19
2019-06-07T09:19:21.891Z,23.13
2019-06-07T09:22:25.526Z,22.88
2019-06-07T09:25:29.273Z,23.94
2019-06-07T09:28:33.394Z,23.71
2019-06-07T09:31:51.800Z,24.56
2019-06-07T09:34:42.530Z,24.15
2019-06-07T09:40:51.809Z,25.26
2019-06-07T09:44:05.504Z,24.33
2019-06-07T09:47:19.930Z,25.19
2019-06-07T09:50:11.852Z,24.31
2019-06-07T09:53:21.600Z,24.75
2019-06-07T09:56:18.650Z,24.45
2019-06-07T09:59:22.395Z,25.73
2019-06-07T10:02:26.057Z,25.47
2019-06-07T10:05:29.727Z,25.75
2019-06-07T10:11:39.175Z,28.18
2019-06-07T10:14:45.140Z,28.43
2019-06-07T10:17:48.266Z,27.98
2019-06-07T10:20:52.060Z,27.31
2019-06-07T10:23:55.778Z,26.80
2019-06-07T10:26:59.723Z,27.98
2019-06-07T10:30:06.281Z,25.47
2019-06-07T10:33:10.488Z,24.74
2019-06-07T10:36:14.269Z,24.21
2019-06-07T10:39:18.032Z,24.84
2019-06-07T10:42:21.734Z,25.39
2019-06-07T10:45:25.638Z,24.79
2019-06-07T10:48:29.334Z,23.95
2019-06-07T10:51:33.044Z,24.07
2019-06-07T10:54:36.693Z,24.13
2019-06-07T10:57:40.356Z,23.74
2019-06-07T11:00:44.105Z,23.62
2019-06-07T11:03:47.757Z,24.69
2019-06-07T11:06:51.505Z,25.78
2019-06-07T11:10:06.267Z,24.71
2019-06-07T11:13:00.653Z,26.69
2019-06-07T11:16:04.949Z,25.86
2019-06-07T11:19:12.598Z,25.21
2019-06-07T11:22:14.265Z,25.54
2019-06-07T11:25:18.685Z,25.72
2019-06-07T11:28:22.457Z,26.12
2019-06-07T11:31:26.103Z,25.51
2019-06-07T11:34:29.852Z,25.14
2019-06-07T11:37:33.569Z,25.21
2019-06-07T11:40:37.218Z,26.13
2019-06-07T11:43:40.896Z,27.16
2019-06-07T11:46:44.530Z,29.35
2019-06-07T11:49:48.198Z,29.56
2019-06-07T11:52:51.899Z,29.57
2019-06-07T11:55:55.564Z,28.61
2019-06-07T11:58:59.232Z,29.66
2019-06-07T12:02:02.914Z,28.63
2019-06-07T12:05:07.512Z,30.03
2019-06-07T12:08:11.925Z,29.19
2019-06-07T12:11:16.498Z,28.40
2019-06-07T12:14:20.364Z,26.38
2019-06-07T12:17:24.019Z,26.51
2019-06-07T12:20:27.785Z,26.74
2019-06-07T12:23:31.408Z,29.05
2019-06-07T12:26:35.125Z,30.08
2019-06-07T12:29:38.808Z,27.32
2019-06-07T12:32:42.473Z,26.64
2019-06-07T12:35:46.464Z,27.41
2019-06-07T12:38:50.307Z,27.84
2019-06-07T12:41:53.990Z,28.66
2019-06-07T12:44:57.705Z,27.75
2019-06-07T12:48:01.317Z,27.56
2019-06-07T12:51:05.741Z,25.85
2019-06-07T12:54:09.411Z,27.09
2019-06-07T12:57:13.879Z,27.90
2019-06-07T13:00:18.280Z,29.63
2019-06-07T13:03:22.573Z,27.39
2019-06-07T13:06:26.295Z,29.08
2019-06-07T13:09:29.936Z,26.92
2019-06-07T13:12:33.564Z,28.75
2019-06-07T13:15:37.304Z,28.39
2019-06-07T13:18:41.067Z,27.62
2019-06-07T13:21:44.722Z,29.65
2019-06-07T13:24:48.478Z,29.90
2019-06-07T13:27:52.161Z,28.07
2019-06-07T13:30:55.853Z,29.08
2019-06-07T13:33:59.549Z,27.88
2019-06-07T13:37:03.259Z,28.17
2019-06-07T13:40:07.780Z,28.28
2019-06-07T13:43:11.408Z,28.44
2019-06-07T13:46:15.070Z,29.43
2019-06-07T13:49:19.401Z,29.91
2019-06-07T13:52:23.171Z,28.50
2019-06-07T13:55:27.999Z,29.85
2019-06-07T13:58:31.857Z,29.11
2019-06-07T14:01:35.545Z,28.96
2019-06-07T14:04:39.212Z,27.89
2019-06-07T14:07:42.961Z,28.59
2019-06-07T14:10:46.617Z,28.48
2019-06-07T14:13:53.345Z,26.82
2019-06-07T14:16:57.001Z,26.34
2019-06-07T14:20:00.759Z,26.13
2019-06-07T14:23:04.484Z,26.01
2019-06-07T14:26:08.131Z,26.03
2019-06-07T14:29:11.893Z,25.26
2019-06-07T14:32:15.564Z,24.81
2019-06-07T14:35:19.365Z,24.42
2019-06-07T14:38:23.194Z,24.64
2019-06-07T14:41:27.181Z,24.34
2019-06-07T14:44:31.681Z,24.52
2019-06-07T14:47:35.575Z,24.59
2019-06-07T14:50:39.258Z,24.61
2019-06-07T14:53:42.943Z,24.90
2019-06-07T14:56:46.711Z,24.79
2019-06-07T14:59:50.433Z,24.89
2019-06-07T15:02:54.108Z,24.64
2019-06-07T15:05:57.768Z,24.80
2019-06-07T15:09:01.471Z,24.61
2019-06-07T15:12:05.169Z,24.62
2019-06-07T15:15:10.848Z,24.81
2019-06-07T15:18:14.481Z,24.64
2019-06-07T15:21:18.202Z,24.63
2019-06-07T15:24:21.887Z,24.70
2019-06-07T15:27:27.144Z,24.84
2019-06-07T15:30:31.664Z,24.89
2019-06-07T15:33:36.513Z,24.92
2019-06-07T15:36:40.344Z,24.85
2019-06-07T15:39:44.075Z,24.89
2019-06-07T15:42:52.894Z,25.01
2019-06-07T15:45:53.208Z,24.92
2019-06-07T15:48:57.045Z,24.64
2019-06-07T15:52:00.746Z,24.70
2019-06-07T15:55:07.273Z,24.66
2019-06-07T15:58:15.990Z,24.65
2019-06-07T16:01:19.644Z,24.60
2019-06-07T16:04:23.284Z,24.55
2019-06-07T16:07:26.962Z,24.71
2019-06-07T16:10:30.670Z,24.70
2019-06-07T16:13:34.474Z,24.79
2019-06-07T16:16:38.995Z,24.71
2019-06-07T16:19:46.466Z,24.74
2019-06-07T16:22:49.933Z,24.51
2019-06-07T16:25:53.791Z,24.64
2019-06-07T16:28:57.467Z,24.64
2019-06-07T16:32:01.201Z,24.52
2019-06-07T16:35:08.604Z,24.63
2019-06-07T16:38:12.290Z,24.54
2019-06-07T16:41:15.992Z,24.52
2019-06-07T16:44:19.663Z,24.64
2019-06-07T16:47:25.259Z,24.59
2019-06-07T16:50:28.942Z,24.64
2019-06-07T16:53:36.161Z,24.61
2019-06-07T16:56:45.401Z,24.73
2019-06-07T16:59:48.897Z,24.74
2019-06-07T17:02:50.748Z,24.69
2019-06-07T17:05:57.085Z,24.65
2019-06-07T17:09:00.715Z,24.67
2019-06-07T17:12:06.377Z,24.69
2019-06-07T17:15:12.874Z,24.70
2019-06-07T17:18:16.530Z,24.70
2019-06-07T17:21:22.141Z,24.72
2019-06-07T17:24:26.822Z,24.67
2019-06-07T17:27:30.948Z,24.75
2019-06-07T17:30:34.734Z,24.80
2019-06-07T17:33:39.762Z,24.83
2019-06-07T17:36:44.891Z,24.77
2019-06-07T17:39:48.780Z,24.72
2019-06-07T17:42:52.468Z,24.65
2019-06-07T17:45:56.116Z,24.61
2019-06-07T17:48:59.772Z,24.59
2019-06-07T17:52:03.449Z,24.46
2019-06-07T17:55:09.823Z,24.47
2019-06-07T17:58:15.042Z,24.45
2019-06-07T18:01:40.978Z,24.37
2019-06-07T18:04:35.034Z,24.31
2019-06-07T18:07:38.922Z,24.29
2019-06-07T18:10:43.747Z,24.25
2019-06-07T18:13:48.258Z,24.20
2019-06-07T18:16:52.738Z,24.17
2019-06-07T18:19:56.459Z,24.14
2019-06-07T18:23:00.119Z,24.05
2019-06-07T18:26:03.850Z,23.98
2019-06-07T18:29:16.053Z,23.95
2019-06-07T18:32:15.158Z,23.93
2019-06-07T18:35:19.802Z,23.90
2019-06-07T18:38:23.523Z,23.90
2019-06-07T18:41:29.792Z,23.84
2019-06-07T18:44:33.553Z,23.79
2019-06-07T18:47:37.173Z,23.72
2019-06-07T18:50:40.822Z,23.66
2019-06-07T18:53:47.487Z,23.63
2019-06-07T18:56:51.409Z,23.53
2019-06-07T18:59:56.446Z,23.49
2019-06-07T19:03:00.376Z,23.43
2019-06-07T19:06:06.886Z,23.35
2019-06-07T19:09:10.657Z,23.29
2019-06-07T19:12:14.282Z,23.27
2019-06-07T19:15:19.004Z,23.23
2019-06-07T19:18:22.816Z,23.15
2019-06-07T19:21:33.569Z,23.13
2019-06-07T19:24:37.120Z,23.04
2019-06-07T19:27:40.855Z,22.95
2019-06-07T19:30:44.555Z,22.94
2019-06-07T19:33:49.325Z,22.88
2019-06-07T19:36:53.619Z,22.81
2019-06-07T19:39:58.018Z,22.78
2019-06-07T19:43:03.897Z,22.71
2019-06-07T19:46:07.274Z,22.61
2019-06-07T19:49:11.060Z,22.58
2019-06-07T19:52:14.803Z,22.54
2019-06-07T19:55:18.593Z,22.52
2019-06-07T19:58:24.158Z,22.43
2019-06-07T20:01:27.967Z,22.34
2019-06-07T20:04:31.619Z,22.32
2019-06-07T20:07:35.314Z,22.26
2019-06-07T20:10:39.007Z,22.19
2019-06-07T20:13:42.638Z,22.18
2019-06-07T20:16:46.403Z,22.13
2019-06-07T20:19:50.094Z,22.07
2019-06-07T20:22:53.745Z,21.98
2019-06-07T20:25:57.415Z,21.93
2019-06-07T20:29:01.384Z,21.87
2019-06-07T20:32:05.245Z,21.84
2019-06-07T20:35:09.308Z,21.80
2019-06-07T20:38:13.006Z,21.74
2019-06-07T20:41:16.634Z,21.71
2019-06-07T20:44:20.317Z,21.61
2019-06-07T20:47:23.972Z,21.57
2019-06-07T20:50:27.645Z,21.52
2019-06-07T20:53:31.392Z,21.50
2019-06-07T20:56:35.024Z,21.49
2019-06-07T20:59:38.704Z,21.54
2019-06-07T21:02:42.436Z,21.48
2019-06-07T21:05:46.467Z,21.49
2019-06-07T21:08:50.112Z,21.43
2019-06-07T21:11:53.786Z,21.43
2019-06-07T21:14:57.442Z,21.36
2019-06-07T21:18:03.888Z,21.34
2019-06-07T21:21:06.733Z,21.33
2019-06-07T21:24:10.921Z,21.28
2019-06-07T21:27:14.575Z,21.26
2019-06-07T21:30:18.388Z,21.19
2019-06-07T21:33:22.036Z,21.18
2019-06-07T21:36:25.776Z,21.14
2019-06-07T21:39:29.410Z,21.04
2019-06-07T21:42:33.103Z,21.01
2019-06-07T21:45:36.841Z,21.05
2019-06-07T21:48:40.540Z,21.06
2019-06-07T21:51:44.173Z,21.02
2019-06-07T21:54:47.836Z,21.05
2019-06-07T21:57:51.546Z,20.98
2019-06-07T22:01:00.773Z,20.95
2019-06-07T22:04:05.435Z,20.95
2019-06-07T22:07:09.533Z,20.92
2019-06-07T22:10:14.454Z,20.97
2019-06-07T22:13:18.410Z,20.98
2019-06-07T22:16:28.980Z,21.06
2019-06-07T22:19:27.598Z,21.14
2019-06-07T22:22:31.233Z,21.13
2019-06-07T22:25:34.933Z,21.15
2019-06-07T22:28:38.623Z,21.18
2019-06-07T22:31:42.314Z,21.30
2019-06-07T22:34:46.022Z,20.96
2019-06-07T22:37:49.813Z,20.68
2019-06-07T22:40:53.522Z,20.34
2019-06-07T22:43:57.351Z,20.21
2019-06-07T22:47:00.994Z,20.16
2019-06-07T22:50:10.713Z,19.73
2019-06-07T22:53:15.553Z,19.64
2019-06-07T22:56:24.030Z,19.68
2019-06-07T22:59:27.785Z,19.52
2019-06-07T23:02:31.596Z,19.27
2019-06-07T23:05:35.349Z,19.30
2019-06-07T23:08:39.088Z,19.22
2019-06-07T23:11:42.772Z,19.16
2019-06-07T23:14:46.469Z,19.05
2019-06-07T23:17:50.181Z,19.12
2019-06-07T23:20:53.819Z,19.18
2019-06-07T23:23:57.472Z,18.98
2019-06-07T23:27:01.177Z,18.84
2019-06-07T23:30:08.653Z,18.84
2019-06-07T23:33:13.098Z,18.84
2019-06-07T23:36:17.223Z,18.92
2019-06-07T23:39:22.463Z,18.66
2019-06-07T23:42:26.442Z,18.63
2019-06-07T23:45:30.156Z,18.62
2019-06-07T23:48:33.829Z,18.57
2019-06-07T23:51:37.535Z,18.59
2019-06-07T23:54:41.178Z,18.50
2019-06-07T23:57:44.953Z,18.29
